Time;durP1;ratioP1;P1;durP2;ratioP2;P2;SDS_P1;SDS_P2;PMS_P1;PMS_P2;Temp;Humidity;BMP_temperature;BMP_pressure;BME280_temperature;BME280_humidity;BME280_pressure;Samples;Min_cycle;Max_cycle;Signal;HPM_P1;HPM_P2
2023/10/30 00:01:26;;;;;;;2.20;0.60;;;;;;;16.61;74.49;99363.59;20970191;28;20048;-72
2023/10/30 00:11:27;;;;;;;1.73;0.47;;;;;;;16.58;74.33;99361.25;20969815;28;20060;-73
2023/10/30 00:21:29;;;;;;;2.78;0.80;;;;;;;16.48;74.43;99374.00;20968857;28;20078;-73
2023/10/30 00:31:31;;;;;;;1.40;0.50;;;;;;;16.49;74.27;99381.88;20968389;28;20056;-72
2023/10/30 00:41:33;;;;;;;0.82;0.50;;;;;;;16.46;74.17;99386.75;20967115;28;20072;-72
2023/10/30 00:51:35;;;;;;;1.10;0.43;;;;;;;16.45;74.06;99401.19;20981981;28;20048;-73
2023/10/30 01:01:38;;;;;;;1.15;0.50;;;;;;;16.45;74.05;99409.25;20867450;28;20049;-72
2023/10/30 01:11:40;;;;;;;1.30;0.70;;;;;;;16.45;73.84;99425.34;20882566;28;20059;-72
2023/10/30 01:21:41;;;;;;;1.65;0.45;;;;;;;16.43;73.67;99422.81;20881669;28;20072;-72
2023/10/30 01:31:43;;;;;;;1.95;0.63;;;;;;;16.42;73.79;99417.63;20880229;28;20130;-72
2023/10/30 01:41:45;;;;;;;2.50;0.45;;;;;;;16.45;73.54;99430.72;20879526;28;20097;-72
2023/10/30 01:51:47;;;;;;;1.23;0.60;;;;;;;16.36;73.27;99433.38;20877377;28;20056;-73
2023/10/30 02:01:49;;;;;;;1.50;0.50;;;;;;;16.48;73.20;99463.47;20879113;28;20143;-73
2023/10/30 02:11:51;;;;;;;1.55;0.73;;;;;;;16.46;73.18;99459.28;20876299;28;20472;-73
2023/10/30 02:21:54;;;;;;;1.67;0.55;;;;;;;16.45;73.20;99471.84;20877189;28;20048;-73
2023/10/30 02:31:56;;;;;;;3.05;0.90;;;;;;;16.44;73.21;99472.03;20876376;28;20051;-72
2023/10/30 02:42:01;;;;;;;1.50;0.60;;;;;;;16.43;73.18;99471.16;20872974;28;20045;-72
2023/10/30 02:52:03;;;;;;;1.13;0.65;;;;;;;16.43;73.02;99467.66;20973835;28;20116;-73
2023/10/30 03:02:06;;;;;;;1.52;0.63;;;;;;;16.43;73.05;99481.09;20956430;28;20056;-72
2023/10/30 03:12:08;;;;;;;2.40;0.80;;;;;;;16.40;73.01;99482.25;20957523;28;20076;-73
2023/10/30 03:22:10;;;;;;;1.50;0.70;;;;;;;16.41;73.03;99483.91;20956634;28;20136;-72
2023/10/30 03:32:12;;;;;;;2.00;0.60;;;;;;;16.43;72.96;99491.84;20956634;28;20504;-72
2023/10/30 03:42:13;;;;;;;1.67;0.50;;;;;;;16.42;73.04;99495.53;20955951;28;20052;-73
2023/10/30 03:52:15;;;;;;;2.08;1.10;;;;;;;16.41;72.85;99497.34;20965091;28;20115;-72
2023/10/30 04:02:17;;;;;;;2.25;0.60;;;;;;;16.42;72.91;99511.63;20970069;28;20049;-72
2023/10/30 04:12:20;;;;;;;2.10;0.82;;;;;;;16.39;73.04;99512.78;20970227;28;20063;-72
2023/10/30 04:22:22;;;;;;;2.65;0.85;;;;;;;16.41;72.56;99516.16;20868973;28;20132;-72
2023/10/30 04:32:24;;;;;;;0.93;0.50;;;;;;;16.41;72.76;99534.94;20885287;28;20049;-72
2023/10/30 04:42:27;;;;;;;2.35;0.70;;;;;;;16.38;72.81;99528.06;20884380;28;20052;-72
2023/10/30 04:52:29;;;;;;;1.98;0.65;;;;;;;16.39;72.89;99523.53;20884427;28;20501;-72
2023/10/30 05:02:31;;;;;;;2.88;0.75;;;;;;;16.38;72.78;99520.03;20882366;28;20048;-72
2023/10/30 05:12:33;;;;;;;2.88;1.02;;;;;;;16.38;72.79;99521.84;20882501;28;20140;-72
2023/10/30 05:22:34;;;;;;;5.90;1.27;;;;;;;16.29;73.11;99512.91;20881895;28;20140;-72
2023/10/30 05:32:36;;;;;;;2.00;0.80;;;;;;;16.26;73.05;99512.38;20879390;28;20471;-72
2023/10/30 05:42:38;;;;;;;2.60;0.85;;;;;;;16.22;73.20;99517.22;20894449;28;20040;-72
2023/10/30 05:52:40;;;;;;;3.15;1.00;;;;;;;16.20;73.21;99529.97;20877911;28;20045;-72
2023/10/30 06:02:42;;;;;;;2.30;0.80;;;;;;;16.19;73.37;99534.50;20879414;28;20485;-72
2023/10/30 06:12:44;;;;;;;2.72;0.95;;;;;;;16.18;73.21;99526.59;20876179;28;20505;-72
2023/10/30 06:22:46;;;;;;;2.15;0.90;;;;;;;16.19;73.40;99552.44;20877488;28;20130;-72
2023/10/30 06:32:48;;;;;;;2.78;1.45;;;;;;;16.17;73.56;99558.00;20876522;28;20098;-73
2023/10/30 06:42:49;;;;;;;2.15;0.95;;;;;;;16.20;73.50;99562.19;20875494;28;20056;-72
2023/10/30 06:52:51;;;;;;;3.08;1.00;;;;;;;16.21;73.52;99578.16;20875761;28;20440;-72
2023/10/30 07:02:53;;;;;;;2.47;0.90;;;;;;;16.28;73.45;99588.25;20875039;28;20041;-73
2023/10/30 07:12:55;;;;;;;2.08;1.00;;;;;;;16.35;73.37;99605.44;20874664;28;20055;-72
2023/10/30 07:22:57;;;;;;;1.80;0.70;;;;;;;16.41;73.42;99595.91;20875846;28;20048;-73
2023/10/30 07:32:59;;;;;;;2.63;0.98;;;;;;;16.49;73.26;99614.75;20890240;28;20463;-72
2023/10/30 07:43:00;;;;;;;2.47;0.80;;;;;;;16.68;73.20;99614.53;20889096;28;20063;-72
2023/10/30 07:53:02;;;;;;;2.15;0.77;;;;;;;17.06;72.32;99621.44;20888376;28;20055;-73
2023/10/30 08:03:06;;;;;;;1.75;0.82;;;;;;;17.25;71.41;99610.44;20888378;28;20103;-73
2023/10/30 08:13:07;;;;;;;2.65;0.88;;;;;;;17.64;70.46;99625.13;20887365;28;20057;-73
2023/10/30 08:23:10;;;;;;;1.92;0.77;;;;;;;17.88;69.90;99628.03;20886756;28;20114;-73
2023/10/30 08:33:12;;;;;;;2.47;0.80;;;;;;;17.97;69.46;99654.81;20884511;28;20045;-73
2023/10/30 08:43:13;;;;;;;1.30;0.70;;;;;;;18.08;69.17;99661.72;20884576;28;20118;-72
2023/10/30 08:53:15;;;;;;;1.63;0.80;;;;;;;18.17;69.32;99667.13;20884256;28;20048;-73
2023/10/30 09:03:17;;;;;;;2.25;0.95;;;;;;;18.23;69.26;99672.66;20883582;28;20110;-69
2023/10/30 09:13:19;;;;;;;2.60;1.08;;;;;;;18.29;69.23;99675.69;20881657;28;20084;-73
2023/10/30 09:23:21;;;;;;;3.25;0.80;;;;;;;18.37;69.18;99663.06;20964938;28;20056;-73
2023/10/30 09:33:23;;;;;;;2.85;0.68;;;;;;;18.43;69.33;99658.00;20963613;28;20098;-73
2023/10/30 09:43:30;;;;;;;2.55;1.08;;;;;;;18.43;69.34;99660.69;20960917;28;20048;-73
2023/10/30 09:53:33;;;;;;;2.88;0.80;;;;;;;18.49;69.36;99660.00;20879526;28;20053;-73
2023/10/30 10:03:35;;;;;;;1.48;0.80;;;;;;;18.49;69.61;99643.84;20879983;28;20048;-73
2023/10/30 10:13:38;;;;;;;2.28;0.80;;;;;;;18.47;69.70;99656.66;20876301;28;20045;-72
2023/10/30 10:23:58;;;;;;;1.77;0.80;;;;;;;18.45;69.95;99659.53;20958825;28;20074;-72
2023/10/30 10:34:00;;;;;;;2.22;0.68;;;;;;;18.49;69.85;99681.56;20959112;28;20413;-72
2023/10/30 10:44:02;;;;;;;1.63;0.60;;;;;;;18.57;69.93;99668.13;20956825;28;20055;-73
2023/10/30 10:54:17;;;;;;;2.80;0.82;;;;;;;18.59;69.97;99666.09;20956603;28;20053;-73
2023/10/30 11:04:19;;;;;;;1.93;0.60;;;;;;;18.58;70.04;99659.00;20957309;28;20415;-73
2023/10/30 11:15:01;;;;;;;1.55;0.80;;;;;;;18.50;70.36;99640.13;20957456;28;20044;-73
2023/10/30 11:25:05;;;;;;;2.10;0.90;;;;;;;18.51;70.62;99620.25;20867384;28;20390;-72
2023/10/30 11:35:07;;;;;;;1.67;0.70;;;;;;;18.51;70.68;99614.88;20956965;28;20045;-73
2023/10/30 11:45:14;;;;;;;3.00;1.02;;;;;;;18.44;70.73;99593.19;20954226;28;20102;-73
2023/10/30 11:55:20;;;;;;;2.17;0.95;;;;;;;18.41;71.02;99588.97;20971855;28;20052;-73
2023/10/30 12:05:22;;;;;;;1.10;0.70;;;;;;;18.43;71.02;99590.63;20955468;28;20044;-73
2023/10/30 12:15:26;;;;;;;2.95;1.08;;;;;;;18.43;71.07;99596.03;20965570;28;20049;-72
2023/10/30 12:25:28;;;;;;;2.97;1.10;;;;;;;18.40;71.17;99581.88;20969609;28;20492;-72
2023/10/30 12:35:30;;;;;;;2.85;0.80;;;;;;;18.36;71.30;99580.56;20968266;28;20048;-72
2023/10/30 12:45:32;;;;;;;2.28;0.98;;;;;;;18.34;71.38;99579.88;20965351;28;20056;-73
2023/10/30 12:55:34;;;;;;;2.88;0.82;;;;;;;18.29;71.54;99570.63;20967215;28;20094;-72
2023/10/30 13:05:35;;;;;;;2.38;0.95;;;;;;;18.29;71.79;99558.00;20965962;28;20052;-73
2023/10/30 13:15:37;;;;;;;1.55;0.70;;;;;;;18.29;71.75;99538.28;20963736;28;20052;-72
2023/10/30 13:25:40;;;;;;;2.60;0.73;;;;;;;18.27;71.66;99527.72;20961832;28;20056;-73
2023/10/30 13:35:42;;;;;;;1.60;0.70;;;;;;;18.27;71.85;99527.72;20963772;28;20573;-73
2023/10/30 13:45:44;;;;;;;2.80;1.20;;;;;;;18.26;72.07;99517.94;20961902;28;20051;-73
2023/10/30 13:55:46;;;;;;;2.13;0.98;;;;;;;18.23;72.14;99507.50;20962161;28;20052;-73
2023/10/30 14:05:47;;;;;;;3.22;0.80;;;;;;;18.20;72.23;99495.22;20959869;28;20060;-72
2023/10/30 14:15:49;;;;;;;2.08;0.80;;;;;;;18.16;72.49;99482.28;20960455;28;20113;-72
2023/10/30 14:25:51;;;;;;;2.85;0.90;;;;;;;18.11;72.51;99482.78;20959653;28;20048;-73
2023/10/30 14:35:53;;;;;;;2.28;0.90;;;;;;;18.07;72.69;99478.78;20959168;28;20044;-73
2023/10/30 14:45:54;;;;;;;2.45;0.70;;;;;;;18.02;73.07;99481.97;20958224;28;20044;-71
2023/10/30 14:55:56;;;;;;;1.50;0.73;;;;;;;17.97;73.27;99479.78;20958712;28;20139;-72
2023/10/30 15:05:59;;;;;;;1.50;0.68;;;;;;;17.94;73.65;99468.50;20957788;28;20044;-73
2023/10/30 15:16:01;;;;;;;2.85;1.00;;;;;;;17.91;73.78;99460.75;20957874;28;20069;-72
2023/10/30 15:26:03;;;;;;;3.00;0.80;;;;;;;17.88;74.01;99442.25;20955713;28;20053;-73
2023/10/30 15:36:05;;;;;;;1.75;0.65;;;;;;;17.83;74.07;99448.16;20956313;28;20044;-73
2023/10/30 15:46:09;;;;;;;2.88;1.08;;;;;;;17.75;74.66;99438.25;20962071;28;20052;-72
2023/10/30 15:56:11;;;;;;;4.45;1.00;;;;;;;17.64;75.28;99419.75;20971645;28;20044;-73
2023/10/30 16:06:18;;;;;;;2.75;0.82;;;;;;;17.52;75.77;99405.84;20970525;28;20098;-72
2023/10/30 16:16:20;;;;;;;4.07;1.00;;;;;;;17.54;75.90;99407.31;20970198;28;20397;-72
2023/10/30 16:26:22;;;;;;;3.28;0.95;;;;;;;17.48;76.26;99389.19;20969422;28;20496;-72
2023/10/30 16:36:24;;;;;;;2.00;0.95;;;;;;;17.47;76.50;99387.50;20968499;28;20575;-72
2023/10/30 16:46:26;;;;;;;2.65;0.85;;;;;;;17.46;76.46;99390.38;20967227;28;20102;-73
2023/10/30 16:56:30;;;;;;;3.67;1.00;;;;;;;17.43;76.70;99383.47;20965824;28;20519;-73
2023/10/30 17:06:32;;;;;;;4.07;0.90;;;;;;;17.40;76.87;99381.13;20964444;28;20143;-73
2023/10/30 17:16:34;;;;;;;1.70;1.00;;;;;;;17.38;77.01;99383.16;20965364;28;20082;-72
2023/10/30 17:26:36;;;;;;;2.15;0.88;;;;;;;17.32;77.34;99370.38;20964505;28;20074;-72
2023/10/30 17:36:38;;;;;;;2.50;1.08;;;;;;;17.39;77.47;99390.22;20963584;28;20060;-72
2023/10/30 17:46:40;;;;;;;2.78;1.25;;;;;;;17.38;77.56;99388.53;20962077;28;20060;-73
2023/10/30 17:56:41;;;;;;;4.40;1.05;;;;;;;17.39;77.60;99374.06;20960173;28;20139;-72
2023/10/30 18:06:43;;;;;;;2.72;1.05;;;;;;;17.39;77.50;99368.69;20961304;28;20094;-72
2023/10/30 18:16:45;;;;;;;1.45;0.90;;;;;;;17.38;77.49;99362.44;20960598;28;20041;-72
2023/10/30 18:26:54;;;;;;;2.65;1.00;;;;;;;17.37;77.69;99349.19;20960335;28;20421;-72
2023/10/30 18:36:56;;;;;;;1.52;1.00;;;;;;;17.35;77.86;99345.81;20959198;28;20058;-72
2023/10/30 18:46:57;;;;;;;2.58;1.00;;;;;;;17.32;77.88;99335.41;20956727;28;20101;-72
2023/10/30 18:56:59;;;;;;;2.65;1.10;;;;;;;17.28;77.90;99312.56;20958428;28;20093;-73
2023/10/30 19:07:02;;;;;;;1.52;0.90;;;;;;;17.25;78.01;99314.59;20958115;28;20048;-73
2023/10/30 19:17:04;;;;;;;1.90;0.95;;;;;;;17.22;78.29;99312.22;20957588;28;20129;-72
2023/10/30 19:27:06;;;;;;;2.28;0.70;;;;;;;17.23;78.39;99305.00;20974146;28;20124;-72
2023/10/30 19:37:08;;;;;;;1.80;0.90;;;;;;;17.20;78.51;99283.81;20971561;28;20044;-73
2023/10/30 19:47:09;;;;;;;2.25;0.80;;;;;;;17.19;78.43;99266.84;20972006;28;20121;-73
2023/10/30 19:57:11;;;;;;;1.85;0.85;;;;;;;17.17;78.69;99258.09;20969783;28;20516;-72
2023/10/30 20:07:13;;;;;;;2.45;1.15;;;;;;;17.16;78.84;99260.97;20971194;28;20052;-73
2023/10/30 20:17:15;;;;;;;1.90;0.88;;;;;;;17.16;78.76;99248.34;20970150;28;20052;-72
2023/10/30 20:27:17;;;;;;;1.17;0.80;;;;;;;17.13;78.83;99251.38;20969270;28;20048;-72
2023/10/30 20:37:19;;;;;;;1.55;0.68;;;;;;;17.13;78.98;99245.19;20968531;28;20048;-72
2023/10/30 20:47:21;;;;;;;1.90;0.90;;;;;;;17.10;79.05;99233.78;20967845;28;20416;-72
2023/10/30 20:57:23;;;;;;;1.33;0.73;;;;;;;17.11;79.23;99234.59;20966937;28;20044;-72
2023/10/30 21:07:24;;;;;;;5.00;0.80;;;;;;;17.05;79.44;99211.09;20966351;28;20055;-72
2023/10/30 21:17:27;;;;;;;1.23;0.65;;;;;;;17.02;79.56;99198.84;20965868;28;20059;-72
2023/10/30 21:27:29;;;;;;;1.15;0.65;;;;;;;17.02;79.76;99200.69;20882169;28;20723;-72
2023/10/30 21:37:31;;;;;;;1.40;0.68;;;;;;;17.00;79.72;99198.16;20880956;28;20064;-73
2023/10/30 21:47:33;;;;;;;1.35;0.63;;;;;;;17.00;79.92;99175.81;20879661;28;20053;-73
2023/10/30 21:57:35;;;;;;;1.90;0.73;;;;;;;16.96;79.94;99165.38;20879650;28;20056;-73
2023/10/30 22:07:36;;;;;;;1.58;0.80;;;;;;;16.96;80.09;99146.56;20878974;28;20056;-72
2023/10/30 22:17:38;;;;;;;2.17;1.00;;;;;;;16.93;80.19;99125.41;20878226;28;20056;-73
2023/10/30 22:27:41;;;;;;;1.20;0.90;;;;;;;16.93;80.17;99106.59;20877563;28;20048;-72
2023/10/30 22:37:43;;;;;;;0.98;0.68;;;;;;;16.85;80.23;99069.00;20876723;28;20048;-72
2023/10/30 22:47:45;;;;;;;1.67;0.70;;;;;;;16.95;80.06;99077.69;20875850;28;20068;-72
2023/10/30 22:57:47;;;;;;;1.08;0.70;;;;;;;16.99;80.02;99066.63;20875735;28;20052;-73
2023/10/30 23:07:48;;;;;;;1.45;1.05;;;;;;;17.00;79.96;99054.84;20875433;28;20420;-72
2023/10/30 23:17:53;;;;;;;1.15;0.80;;;;;;;17.00;79.98;99055.66;20874790;28;20126;-73
2023/10/30 23:27:55;;;;;;;1.57;0.80;;;;;;;16.98;80.08;99030.00;20874603;28;20055;-73
2023/10/30 23:37:57;;;;;;;1.13;0.80;;;;;;;16.98;79.96;99027.31;20874268;28;20288;-73
2023/10/30 23:48:08;;;;;;;2.15;0.80;;;;;;;16.98;79.98;99030.00;20873368;28;20512;-73
2023/10/30 23:58:10;;;;;;;1.75;0.90;;;;;;;16.96;80.07;99020.22;20871832;28;20045;-72
